Portada
METAR-TAF:

METAR-TAF

Aeroports :

Guwahati, Índia

latitud: 26-06-22N, longitud: 091-35-09E, altitud: 49 m

Observació

L'informe es va fer fa 2 hores i 53 minuts, a les 18:30 UTC
Vent calma
Temperatura 16°C
Humitat 94%
Pressió 1012 hPa
Visibilitat: 2000 m
Escasses núvols a una alçada de 1800 ft
Cel ennuvolat a una alçada de 10000 ft
boirina

METAR: VEGT 261830Z 00000KT 2000 BR FEW018 BKN100 16/15 Q1012 NOSIG

Hora: 02:53 (21:23 UTC)

Pronòstic

L'informe es va fer fa 4 hores i 23 minuts, a les 17:00 UTC
Pronòstic vàlid del 26 a les 18 UTC al 27 a les 03 UTC
Vent kt del Nord
Visibilitat: 2500 m
Núvols disperses a una alçada de 1800 ft
Cel ennuvolat a una alçada de 10000 ft
boirina
Evolucionant progressivament
l' 26 a les 20 UTC al 26 a les 22 UTC
Visibilitat: 1400 m
pluja, boirina

TAF: VEGT 261700Z 2618/2703 00000KT 2500 BR SCT018 BKN100 BECMG 2620/2622 1400 -RA BR

Observacions i pronòstics meteorològics de més de 4000 aeroports (METAR i TAF).

Les estacions disponibles són els punts grocs i vermells al mapa.

Posi el ratolí al punt desitjat per veure el nom de l'estació.

Feu clic per veure les observacions i els pronòstics meteorològics.

Per canviar el mapa: feu clic els botons verds amb una creu de color negre per apropar; al botó verd amb un guió per allunyar la imatge; o en les fletxes verdes per a mapes adjacents.


METAR-TAF: